sensor_id;sensor_type;location;lat;lon;timestamp;P1;durP1;ratioP1;P2;durP2;ratioP2
44102;SDS011;29769;42.178;24.742;2023-02-10T00:00:27;31.13;;;10.32;;
44102;SDS011;29769;42.178;24.742;2023-02-10T00:03:12;27.52;;;11.05;;
44102;SDS011;29769;42.178;24.742;2023-02-10T00:05:57;29.15;;;11.18;;
44102;SDS011;29769;42.178;24.742;2023-02-10T00:08:45;31.33;;;11.57;;
44102;SDS011;29769;42.178;24.742;2023-02-10T00:11:31;34.97;;;11.25;;
44102;SDS011;29769;42.178;24.742;2023-02-10T00:14:35;215.13;;;27.55;;
44102;SDS011;29769;42.178;24.742;2023-02-10T00:17:19;65.15;;;15.23;;
44102;SDS011;29769;42.178;24.742;2023-02-10T00:20:04;36.40;;;14.32;;
44102;SDS011;29769;42.178;24.742;2023-02-10T00:22:51;31.77;;;12.32;;
44102;SDS011;29769;42.178;24.742;2023-02-10T00:25:36;43.92;;;13.38;;
44102;SDS011;29769;42.178;24.742;2023-02-10T00:28:21;40.33;;;13.57;;
44102;SDS011;29769;42.178;24.742;2023-02-10T00:31:09;37.10;;;12.80;;
44102;SDS011;29769;42.178;24.742;2023-02-10T00:33:56;52.78;;;15.70;;
44102;SDS011;29769;42.178;24.742;2023-02-10T00:36:41;36.30;;;13.30;;
44102;SDS011;29769;42.178;24.742;2023-02-10T00:39:26;32.75;;;12.68;;
44102;SDS011;29769;42.178;24.742;2023-02-10T00:42:11;33.28;;;13.02;;
44102;SDS011;29769;42.178;24.742;2023-02-10T00:44:56;44.65;;;15.38;;
44102;SDS011;29769;42.178;24.742;2023-02-10T00:47:41;53.10;;;14.77;;
44102;SDS011;29769;42.178;24.742;2023-02-10T00:50:26;43.47;;;13.43;;
44102;SDS011;29769;42.178;24.742;2023-02-10T00:53:11;41.97;;;13.93;;
44102;SDS011;29769;42.178;24.742;2023-02-10T00:55:56;47.90;;;15.07;;
44102;SDS011;29769;42.178;24.742;2023-02-10T00:58:41;36.90;;;13.57;;
44102;SDS011;29769;42.178;24.742;2023-02-10T01:01:27;45.28;;;13.90;;
44102;SDS011;29769;42.178;24.742;2023-02-10T01:04:12;38.03;;;14.55;;
44102;SDS011;29769;42.178;24.742;2023-02-10T01:06:57;32.85;;;13.27;;
44102;SDS011;29769;42.178;24.742;2023-02-10T01:09:42;31.30;;;12.55;;
44102;SDS011;29769;42.178;24.742;2023-02-10T01:12:27;36.28;;;14.45;;
44102;SDS011;29769;42.178;24.742;2023-02-10T01:15:11;36.28;;;13.25;;
44102;SDS011;29769;42.178;24.742;2023-02-10T01:17:56;34.88;;;13.63;;
44102;SDS011;29769;42.178;24.742;2023-02-10T01:20:42;51.08;;;15.00;;
44102;SDS011;29769;42.178;24.742;2023-02-10T01:23:27;55.28;;;16.83;;
44102;SDS011;29769;42.178;24.742;2023-02-10T01:26:13;31.33;;;13.80;;
44102;SDS011;29769;42.178;24.742;2023-02-10T01:28:58;37.70;;;14.75;;
44102;SDS011;29769;42.178;24.742;2023-02-10T01:31:43;36.53;;;14.93;;
44102;SDS011;29769;42.178;24.742;2023-02-10T01:34:28;43.58;;;15.77;;
44102;SDS011;29769;42.178;24.742;2023-02-10T01:37:13;45.35;;;15.95;;
44102;SDS011;29769;42.178;24.742;2023-02-10T01:39:58;47.30;;;16.75;;
44102;SDS011;29769;42.178;24.742;2023-02-10T01:42:44;37.83;;;15.38;;
44102;SDS011;29769;42.178;24.742;2023-02-10T01:45:31;44.47;;;14.93;;
44102;SDS011;29769;42.178;24.742;2023-02-10T01:48:18;37.75;;;13.23;;
44102;SDS011;29769;42.178;24.742;2023-02-10T01:51:04;34.58;;;13.57;;
44102;SDS011;29769;42.178;24.742;2023-02-10T01:53:51;40.42;;;15.35;;
44102;SDS011;29769;42.178;24.742;2023-02-10T01:56:36;36.67;;;14.60;;
44102;SDS011;29769;42.178;24.742;2023-02-10T01:59:21;35.05;;;14.13;;
44102;SDS011;29769;42.178;24.742;2023-02-10T02:02:10;37.97;;;15.05;;
44102;SDS011;29769;42.178;24.742;2023-02-10T02:05:00;39.20;;;14.55;;
44102;SDS011;29769;42.178;24.742;2023-02-10T02:07:45;64.57;;;16.35;;
44102;SDS011;29769;42.178;24.742;2023-02-10T02:10:41;49.30;;;15.25;;
44102;SDS011;29769;42.178;24.742;2023-02-10T02:13:42;39.72;;;14.50;;
44102;SDS011;29769;42.178;24.742;2023-02-10T02:32:21;47.22;;;17.10;;
44102;SDS011;29769;42.178;24.742;2023-02-10T02:35:10;43.47;;;16.52;;
44102;SDS011;29769;42.178;24.742;2023-02-10T02:37:59;40.40;;;16.80;;
44102;SDS011;29769;42.178;24.742;2023-02-10T02:40:44;38.53;;;15.98;;
44102;SDS011;29769;42.178;24.742;2023-02-10T02:43:29;41.35;;;15.10;;
44102;SDS011;29769;42.178;24.742;2023-02-10T02:49:27;42.58;;;14.00;;
44102;SDS011;29769;42.178;24.742;2023-02-10T02:52:42;36.95;;;13.05;;
44102;SDS011;29769;42.178;24.742;2023-02-10T03:02:07;44.53;;;15.70;;
44102;SDS011;29769;42.178;24.742;2023-02-10T03:04:55;43.10;;;14.40;;
44102;SDS011;29769;42.178;24.742;2023-02-10T03:07:42;36.03;;;14.38;;
44102;SDS011;29769;42.178;24.742;2023-02-10T03:10:27;35.35;;;14.27;;
44102;SDS011;29769;42.178;24.742;2023-02-10T03:13:12;39.28;;;13.65;;
44102;SDS011;29769;42.178;24.742;2023-02-10T03:15:58;34.22;;;14.18;;
44102;SDS011;29769;42.178;24.742;2023-02-10T03:18:44;43.35;;;15.38;;
44102;SDS011;29769;42.178;24.742;2023-02-10T03:21:29;44.20;;;14.30;;
44102;SDS011;29769;42.178;24.742;2023-02-10T03:24:14;36.60;;;13.90;;
44102;SDS011;29769;42.178;24.742;2023-02-10T03:26:59;40.25;;;13.55;;
44102;SDS011;29769;42.178;24.742;2023-02-10T03:29:44;30.30;;;13.40;;
44102;SDS011;29769;42.178;24.742;2023-02-10T03:32:29;32.60;;;12.90;;
44102;SDS011;29769;42.178;24.742;2023-02-10T03:35:14;54.70;;;15.05;;
44102;SDS011;29769;42.178;24.742;2023-02-10T03:37:59;39.20;;;14.50;;
44102;SDS011;29769;42.178;24.742;2023-02-10T03:40:44;34.95;;;15.32;;
44102;SDS011;29769;42.178;24.742;2023-02-10T03:43:28;39.45;;;15.63;;
44102;SDS011;29769;42.178;24.742;2023-02-10T03:46:13;53.70;;;20.58;;
44102;SDS011;29769;42.178;24.742;2023-02-10T03:48:58;66.85;;;20.70;;
44102;SDS011;29769;42.178;24.742;2023-02-10T03:51:43;58.80;;;19.77;;
44102;SDS011;29769;42.178;24.742;2023-02-10T03:54:28;67.93;;;24.25;;
44102;SDS011;29769;42.178;24.742;2023-02-10T03:57:13;60.60;;;22.77;;
44102;SDS011;29769;42.178;24.742;2023-02-10T03:59:58;53.72;;;20.17;;
44102;SDS011;29769;42.178;24.742;2023-02-10T04:02:43;60.95;;;20.20;;
44102;SDS011;29769;42.178;24.742;2023-02-10T04:05:29;60.70;;;20.20;;
44102;SDS011;29769;42.178;24.742;2023-02-10T04:08:15;69.88;;;24.58;;
44102;SDS011;29769;42.178;24.742;2023-02-10T04:11:00;77.10;;;26.60;;
44102;SDS011;29769;42.178;24.742;2023-02-10T04:13:45;68.22;;;23.38;;
44102;SDS011;29769;42.178;24.742;2023-02-10T04:16:30;59.03;;;21.70;;
44102;SDS011;29769;42.178;24.742;2023-02-10T04:19:16;56.08;;;21.40;;
44102;SDS011;29769;42.178;24.742;2023-02-10T04:22:02;47.55;;;18.10;;
44102;SDS011;29769;42.178;24.742;2023-02-10T04:24:47;63.30;;;20.58;;
44102;SDS011;29769;42.178;24.742;2023-02-10T04:27:32;49.10;;;21.25;;
44102;SDS011;29769;42.178;24.742;2023-02-10T04:30:16;55.88;;;20.65;;
44102;SDS011;29769;42.178;24.742;2023-02-10T04:33:02;61.75;;;20.73;;
44102;SDS011;29769;42.178;24.742;2023-02-10T04:35:47;55.80;;;21.90;;
44102;SDS011;29769;42.178;24.742;2023-02-10T04:38:33;72.85;;;25.88;;
44102;SDS011;29769;42.178;24.742;2023-02-10T04:41:18;100.82;;;39.45;;
44102;SDS011;29769;42.178;24.742;2023-02-10T04:44:03;69.60;;;28.48;;
44102;SDS011;29769;42.178;24.742;2023-02-10T04:46:48;64.38;;;25.75;;
44102;SDS011;29769;42.178;24.742;2023-02-10T04:49:34;66.88;;;24.38;;
44102;SDS011;29769;42.178;24.742;2023-02-10T04:52:19;61.33;;;23.63;;
44102;SDS011;29769;42.178;24.742;2023-02-10T04:57:49;49.45;;;17.95;;
44102;SDS011;29769;42.178;24.742;2023-02-10T05:00:34;53.72;;;19.02;;
44102;SDS011;29769;42.178;24.742;2023-02-10T05:03:19;45.20;;;18.30;;
44102;SDS011;29769;42.178;24.742;2023-02-10T05:06:13;56.65;;;19.75;;
44102;SDS011;29769;42.178;24.742;2023-02-10T05:08:58;51.45;;;18.88;;
44102;SDS011;29769;42.178;24.742;2023-02-10T05:11:44;55.42;;;18.25;;
44102;SDS011;29769;42.178;24.742;2023-02-10T05:14:28;55.47;;;20.13;;
44102;SDS011;29769;42.178;24.742;2023-02-10T05:17:13;61.47;;;20.92;;
44102;SDS011;29769;42.178;24.742;2023-02-10T05:19:58;48.17;;;17.52;;
44102;SDS011;29769;42.178;24.742;2023-02-10T05:22:43;48.88;;;17.75;;
44102;SDS011;29769;42.178;24.742;2023-02-10T05:25:27;51.05;;;18.77;;
44102;SDS011;29769;42.178;24.742;2023-02-10T05:28:12;55.65;;;19.13;;
44102;SDS011;29769;42.178;24.742;2023-02-10T05:30:57;56.97;;;19.17;;
44102;SDS011;29769;42.178;24.742;2023-02-10T05:33:42;53.80;;;16.90;;
44102;SDS011;29769;42.178;24.742;2023-02-10T05:36:27;155.80;;;45.42;;
44102;SDS011;29769;42.178;24.742;2023-02-10T05:39:12;146.35;;;46.08;;
44102;SDS011;29769;42.178;24.742;2023-02-10T05:42:09;84.88;;;25.65;;
44102;SDS011;29769;42.178;24.742;2023-02-10T05:44:53;99.82;;;30.02;;
44102;SDS011;29769;42.178;24.742;2023-02-10T05:47:38;59.53;;;24.08;;
44102;SDS011;29769;42.178;24.742;2023-02-10T05:50:23;70.15;;;24.38;;
44102;SDS011;29769;42.178;24.742;2023-02-10T05:53:08;92.82;;;31.13;;
44102;SDS011;29769;42.178;24.742;2023-02-10T05:55:53;112.35;;;38.28;;
44102;SDS011;29769;42.178;24.742;2023-02-10T05:58:38;130.50;;;37.35;;
44102;SDS011;29769;42.178;24.742;2023-02-10T06:01:23;100.82;;;30.50;;
44102;SDS011;29769;42.178;24.742;2023-02-10T06:06:52;58.88;;;23.73;;
44102;SDS011;29769;42.178;24.742;2023-02-10T06:09:37;46.67;;;17.80;;
44102;SDS011;29769;42.178;24.742;2023-02-10T06:12:23;38.88;;;16.02;;
44102;SDS011;29769;42.178;24.742;2023-02-10T06:15:08;79.28;;;20.33;;
44102;SDS011;29769;42.178;24.742;2023-02-10T06:17:53;54.88;;;16.13;;
44102;SDS011;29769;42.178;24.742;2023-02-10T06:20:38;45.92;;;15.63;;
44102;SDS011;29769;42.178;24.742;2023-02-10T06:23:23;51.35;;;15.68;;
44102;SDS011;29769;42.178;24.742;2023-02-10T06:26:09;49.67;;;16.17;;
44102;SDS011;29769;42.178;24.742;2023-02-10T06:28:54;31.15;;;14.02;;
44102;SDS011;29769;42.178;24.742;2023-02-10T06:31:40;44.50;;;15.80;;
44102;SDS011;29769;42.178;24.742;2023-02-10T06:34:25;33.85;;;12.95;;
44102;SDS011;29769;42.178;24.742;2023-02-10T06:37:09;33.55;;;12.70;;
44102;SDS011;29769;42.178;24.742;2023-02-10T06:39:54;61.67;;;15.82;;
44102;SDS011;29769;42.178;24.742;2023-02-10T06:42:38;49.97;;;14.40;;
44102;SDS011;29769;42.178;24.742;2023-02-10T06:45:23;47.05;;;14.52;;
44102;SDS011;29769;42.178;24.742;2023-02-10T06:48:08;53.50;;;13.52;;
44102;SDS011;29769;42.178;24.742;2023-02-10T06:50:53;32.10;;;12.57;;
44102;SDS011;29769;42.178;24.742;2023-02-10T06:53:38;38.17;;;15.80;;
44102;SDS011;29769;42.178;24.742;2023-02-10T06:56:23;30.05;;;13.88;;
44102;SDS011;29769;42.178;24.742;2023-02-10T06:59:08;47.17;;;20.75;;
44102;SDS011;29769;42.178;24.742;2023-02-10T07:01:53;57.45;;;22.85;;
44102;SDS011;29769;42.178;24.742;2023-02-10T07:04:44;43.65;;;21.33;;
44102;SDS011;29769;42.178;24.742;2023-02-10T07:07:29;29.52;;;15.10;;
44102;SDS011;29769;42.178;24.742;2023-02-10T07:10:14;27.25;;;12.43;;
44102;SDS011;29769;42.178;24.742;2023-02-10T07:12:59;43.85;;;17.10;;
44102;SDS011;29769;42.178;24.742;2023-02-10T07:15:44;52.85;;;21.80;;
44102;SDS011;29769;42.178;24.742;2023-02-10T07:18:30;35.33;;;13.40;;
44102;SDS011;29769;42.178;24.742;2023-02-10T07:21:15;26.10;;;12.15;;
44102;SDS011;29769;42.178;24.742;2023-02-10T07:24:00;60.40;;;24.85;;
44102;SDS011;29769;42.178;24.742;2023-02-10T07:29:30;32.30;;;12.85;;
44102;SDS011;29769;42.178;24.742;2023-02-10T07:32:15;18.33;;;9.52;;
44102;SDS011;29769;42.178;24.742;2023-02-10T07:35:00;23.75;;;10.60;;
44102;SDS011;29769;42.178;24.742;2023-02-10T07:37:45;29.50;;;11.77;;
44102;SDS011;29769;42.178;24.742;2023-02-10T07:40:30;31.98;;;11.73;;
44102;SDS011;29769;42.178;24.742;2023-02-10T07:43:15;24.83;;;10.20;;
44102;SDS011;29769;42.178;24.742;2023-02-10T07:46:09;24.58;;;10.27;;
44102;SDS011;29769;42.178;24.742;2023-02-10T07:48:54;28.85;;;11.23;;
44102;SDS011;29769;42.178;24.742;2023-02-10T07:51:39;24.55;;;10.95;;
44102;SDS011;29769;42.178;24.742;2023-02-10T07:54:24;21.17;;;11.23;;
44102;SDS011;29769;42.178;24.742;2023-02-10T07:57:09;21.00;;;10.52;;
44102;SDS011;29769;42.178;24.742;2023-02-10T07:59:54;23.65;;;11.45;;
44102;SDS011;29769;42.178;24.742;2023-02-10T08:02:39;19.20;;;9.55;;
44102;SDS011;29769;42.178;24.742;2023-02-10T08:05:24;25.90;;;11.63;;
44102;SDS011;29769;42.178;24.742;2023-02-10T08:08:09;34.75;;;12.70;;
44102;SDS011;29769;42.178;24.742;2023-02-10T08:10:54;41.83;;;11.43;;
44102;SDS011;29769;42.178;24.742;2023-02-10T08:13:39;27.98;;;13.63;;
44102;SDS011;29769;42.178;24.742;2023-02-10T08:16:24;35.15;;;16.95;;
44102;SDS011;29769;42.178;24.742;2023-02-10T08:19:09;36.03;;;13.48;;
44102;SDS011;29769;42.178;24.742;2023-02-10T08:21:54;39.45;;;13.55;;
44102;SDS011;29769;42.178;24.742;2023-02-10T08:24:38;33.08;;;12.90;;
44102;SDS011;29769;42.178;24.742;2023-02-10T08:27:23;28.80;;;12.07;;
44102;SDS011;29769;42.178;24.742;2023-02-10T08:30:08;24.88;;;12.30;;
44102;SDS011;29769;42.178;24.742;2023-02-10T08:32:54;38.22;;;13.32;;
44102;SDS011;29769;42.178;24.742;2023-02-10T08:35:39;44.92;;;12.48;;
44102;SDS011;29769;42.178;24.742;2023-02-10T08:38:25;25.88;;;12.27;;
44102;SDS011;29769;42.178;24.742;2023-02-10T08:41:10;28.02;;;12.77;;
44102;SDS011;29769;42.178;24.742;2023-02-10T08:43:55;37.75;;;13.20;;
44102;SDS011;29769;42.178;24.742;2023-02-10T08:46:41;23.80;;;12.32;;
44102;SDS011;29769;42.178;24.742;2023-02-10T08:49:26;22.02;;;12.32;;
44102;SDS011;29769;42.178;24.742;2023-02-10T08:52:11;45.25;;;13.40;;
44102;SDS011;29769;42.178;24.742;2023-02-10T08:54:56;22.90;;;10.45;;
44102;SDS011;29769;42.178;24.742;2023-02-10T08:57:41;29.23;;;11.57;;
44102;SDS011;29769;42.178;24.742;2023-02-10T09:00:26;20.80;;;11.63;;
44102;SDS011;29769;42.178;24.742;2023-02-10T09:03:11;22.10;;;11.32;;
44102;SDS011;29769;42.178;24.742;2023-02-10T09:05:56;20.35;;;10.60;;
44102;SDS011;29769;42.178;24.742;2023-02-10T09:08:41;22.95;;;13.40;;
44102;SDS011;29769;42.178;24.742;2023-02-10T09:11:26;19.00;;;11.38;;
44102;SDS011;29769;42.178;24.742;2023-02-10T09:16:56;16.73;;;10.45;;
44102;SDS011;29769;42.178;24.742;2023-02-10T09:19:41;51.35;;;12.90;;
44102;SDS011;29769;42.178;24.742;2023-02-10T09:22:25;24.85;;;11.73;;
44102;SDS011;29769;42.178;24.742;2023-02-10T09:25:10;21.08;;;12.43;;
44102;SDS011;29769;42.178;24.742;2023-02-10T09:30:41;24.73;;;12.02;;
44102;SDS011;29769;42.178;24.742;2023-02-10T09:33:26;71.68;;;41.35;;
44102;SDS011;29769;42.178;24.742;2023-02-10T09:36:15;32.70;;;12.88;;
44102;SDS011;29769;42.178;24.742;2023-02-10T09:39:02;20.88;;;12.48;;
44102;SDS011;29769;42.178;24.742;2023-02-10T09:41:55;21.85;;;12.48;;
44102;SDS011;29769;42.178;24.742;2023-02-10T09:44:55;29.45;;;12.30;;
44102;SDS011;29769;42.178;24.742;2023-02-10T09:47:51;40.67;;;18.77;;
44102;SDS011;29769;42.178;24.742;2023-02-10T09:50:45;41.85;;;23.15;;
44102;SDS011;29769;42.178;24.742;2023-02-10T09:53:38;23.40;;;12.30;;
44102;SDS011;29769;42.178;24.742;2023-02-10T09:56:23;20.08;;;11.05;;
44102;SDS011;29769;42.178;24.742;2023-02-10T09:59:16;12.60;;;9.55;;
44102;SDS011;29769;42.178;24.742;2023-02-10T10:05:12;22.45;;;11.20;;
44102;SDS011;29769;42.178;24.742;2023-02-10T10:08:04;25.92;;;11.70;;
44102;SDS011;29769;42.178;24.742;2023-02-10T10:10:56;14.88;;;9.55;;
44102;SDS011;29769;42.178;24.742;2023-02-10T10:13:47;22.00;;;13.63;;
44102;SDS011;29769;42.178;24.742;2023-02-10T10:16:41;16.80;;;10.52;;
44102;SDS011;29769;42.178;24.742;2023-02-10T10:19:50;46.35;;;13.10;;
44102;SDS011;29769;42.178;24.742;2023-02-10T10:28:52;22.88;;;10.82;;
44102;SDS011;29769;42.178;24.742;2023-02-10T10:31:48;17.02;;;10.13;;
44102;SDS011;29769;42.178;24.742;2023-02-10T10:34:41;18.00;;;10.32;;
44102;SDS011;29769;42.178;24.742;2023-02-10T10:37:33;16.85;;;9.20;;
44102;SDS011;29769;42.178;24.742;2023-02-10T10:40:20;15.65;;;9.55;;
44102;SDS011;29769;42.178;24.742;2023-02-10T10:43:12;12.23;;;9.50;;
44102;SDS011;29769;42.178;24.742;2023-02-10T10:46:03;14.10;;;9.30;;
44102;SDS011;29769;42.178;24.742;2023-02-10T10:48:55;14.68;;;9.18;;
44102;SDS011;29769;42.178;24.742;2023-02-10T10:51:41;18.45;;;9.77;;
44102;SDS011;29769;42.178;24.742;2023-02-10T10:54:26;21.92;;;8.23;;
44102;SDS011;29769;42.178;24.742;2023-02-10T10:57:11;14.60;;;8.80;;
44102;SDS011;29769;42.178;24.742;2023-02-10T10:59:58;12.55;;;7.82;;
44102;SDS011;29769;42.178;24.742;2023-02-10T11:02:55;14.93;;;8.80;;
44102;SDS011;29769;42.178;24.742;2023-02-10T11:05:57;16.73;;;8.33;;
44102;SDS011;29769;42.178;24.742;2023-02-10T11:08:55;11.20;;;7.88;;
44102;SDS011;29769;42.178;24.742;2023-02-10T11:11:44;9.75;;;7.20;;
44102;SDS011;29769;42.178;24.742;2023-02-10T11:14:29;19.17;;;8.50;;
44102;SDS011;29769;42.178;24.742;2023-02-10T11:17:35;15.98;;;8.80;;
44102;SDS011;29769;42.178;24.742;2023-02-10T11:23:12;21.27;;;10.30;;
44102;SDS011;29769;42.178;24.742;2023-02-10T11:28:48;14.15;;;9.32;;
44102;SDS011;29769;42.178;24.742;2023-02-10T11:31:33;16.27;;;8.95;;
44102;SDS011;29769;42.178;24.742;2023-02-10T11:37:34;13.05;;;9.48;;
44102;SDS011;29769;42.178;24.742;2023-02-10T11:40:26;20.70;;;9.63;;
44102;SDS011;29769;42.178;24.742;2023-02-10T11:43:13;24.40;;;8.52;;
44102;SDS011;29769;42.178;24.742;2023-02-10T11:46:01;11.88;;;8.57;;
44102;SDS011;29769;42.178;24.742;2023-02-10T11:49:22;22.02;;;9.90;;
44102;SDS011;29769;42.178;24.742;2023-02-10T11:52:02;14.43;;;9.45;;
44102;SDS011;29769;42.178;24.742;2023-02-10T11:54:49;35.30;;;12.40;;
44102;SDS011;29769;42.178;24.742;2023-02-10T11:57:48;29.73;;;8.82;;
44102;SDS011;29769;42.178;24.742;2023-02-10T12:01:11;13.45;;;8.10;;
44102;SDS011;29769;42.178;24.742;2023-02-10T12:10:27;13.20;;;8.73;;
44102;SDS011;29769;42.178;24.742;2023-02-10T12:34:54;22.45;;;13.13;;
44102;SDS011;29769;42.178;24.742;2023-02-10T12:43:40;18.55;;;9.25;;
44102;SDS011;29769;42.178;24.742;2023-02-10T12:55:18;15.05;;;8.30;;
44102;SDS011;29769;42.178;24.742;2023-02-10T12:58:27;18.15;;;9.73;;
44102;SDS011;29769;42.178;24.742;2023-02-10T13:01:29;16.77;;;8.65;;
44102;SDS011;29769;42.178;24.742;2023-02-10T13:04:26;14.73;;;9.10;;
44102;SDS011;29769;42.178;24.742;2023-02-10T13:07:17;31.38;;;9.57;;
44102;SDS011;29769;42.178;24.742;2023-02-10T13:13:00;23.85;;;8.35;;
44102;SDS011;29769;42.178;24.742;2023-02-10T13:22:03;27.30;;;8.82;;
44102;SDS011;29769;42.178;24.742;2023-02-10T13:24:57;15.05;;;8.63;;
44102;SDS011;29769;42.178;24.742;2023-02-10T13:28:15;18.73;;;8.23;;
44102;SDS011;29769;42.178;24.742;2023-02-10T13:31:10;12.32;;;8.50;;
44102;SDS011;29769;42.178;24.742;2023-02-10T13:34:13;24.90;;;9.00;;
44102;SDS011;29769;42.178;24.742;2023-02-10T13:43:24;10.90;;;7.85;;
44102;SDS011;29769;42.178;24.742;2023-02-10T13:46:18;16.25;;;8.40;;
44102;SDS011;29769;42.178;24.742;2023-02-10T13:49:11;28.63;;;8.98;;
44102;SDS011;29769;42.178;24.742;2023-02-10T13:55:00;16.90;;;8.00;;
44102;SDS011;29769;42.178;24.742;2023-02-10T14:00:52;16.05;;;7.57;;
44102;SDS011;29769;42.178;24.742;2023-02-10T14:03:38;22.52;;;8.25;;
44102;SDS011;29769;42.178;24.742;2023-02-10T14:12:26;25.30;;;9.20;;
44102;SDS011;29769;42.178;24.742;2023-02-10T14:15:23;14.55;;;8.23;;
44102;SDS011;29769;42.178;24.742;2023-02-10T14:21:15;30.35;;;10.07;;
44102;SDS011;29769;42.178;24.742;2023-02-10T14:24:01;14.45;;;8.27;;
44102;SDS011;29769;42.178;24.742;2023-02-10T14:29:32;22.23;;;8.23;;
44102;SDS011;29769;42.178;24.742;2023-02-10T14:32:19;12.32;;;7.88;;
44102;SDS011;29769;42.178;24.742;2023-02-10T14:35:03;22.52;;;9.30;;
44102;SDS011;29769;42.178;24.742;2023-02-10T14:38:00;11.35;;;7.63;;
44102;SDS011;29769;42.178;24.742;2023-02-10T14:40:45;14.25;;;7.78;;
44102;SDS011;29769;42.178;24.742;2023-02-10T14:43:34;35.63;;;9.82;;
44102;SDS011;29769;42.178;24.742;2023-02-10T14:49:10;18.23;;;8.40;;
44102;SDS011;29769;42.178;24.742;2023-02-10T14:51:59;27.30;;;9.35;;
44102;SDS011;29769;42.178;24.742;2023-02-10T14:54:44;20.13;;;9.13;;
44102;SDS011;29769;42.178;24.742;2023-02-10T14:57:31;22.15;;;9.00;;
44102;SDS011;29769;42.178;24.742;2023-02-10T15:00:17;21.17;;;8.55;;
44102;SDS011;29769;42.178;24.742;2023-02-10T15:03:02;39.22;;;10.35;;
44102;SDS011;29769;42.178;24.742;2023-02-10T15:05:48;20.85;;;9.40;;
44102;SDS011;29769;42.178;24.742;2023-02-10T15:08:42;21.45;;;8.73;;
44102;SDS011;29769;42.178;24.742;2023-02-10T15:11:32;20.98;;;8.85;;
44102;SDS011;29769;42.178;24.742;2023-02-10T15:14:42;16.67;;;8.02;;
44102;SDS011;29769;42.178;24.742;2023-02-10T15:17:45;20.95;;;8.77;;
44102;SDS011;29769;42.178;24.742;2023-02-10T15:20:33;25.98;;;9.20;;
44102;SDS011;29769;42.178;24.742;2023-02-10T15:23:18;35.13;;;9.60;;
44102;SDS011;29769;42.178;24.742;2023-02-10T15:26:15;79.18;;;10.43;;
44102;SDS011;29769;42.178;24.742;2023-02-10T15:29:10;37.70;;;9.88;;
44102;SDS011;29769;42.178;24.742;2023-02-10T15:31:57;31.40;;;9.30;;
44102;SDS011;29769;42.178;24.742;2023-02-10T15:34:42;27.38;;;10.20;;
44102;SDS011;29769;42.178;24.742;2023-02-10T15:37:27;17.85;;;8.27;;
44102;SDS011;29769;42.178;24.742;2023-02-10T15:40:20;39.00;;;11.10;;
44102;SDS011;29769;42.178;24.742;2023-02-10T15:43:22;16.92;;;8.32;;
44102;SDS011;29769;42.178;24.742;2023-02-10T15:46:14;20.08;;;8.27;;
44102;SDS011;29769;42.178;24.742;2023-02-10T15:49:10;15.20;;;7.25;;
44102;SDS011;29769;42.178;24.742;2023-02-10T15:51:56;20.52;;;8.15;;
44102;SDS011;29769;42.178;24.742;2023-02-10T15:54:41;18.83;;;8.15;;
44102;SDS011;29769;42.178;24.742;2023-02-10T15:57:26;23.65;;;8.70;;
44102;SDS011;29769;42.178;24.742;2023-02-10T16:00:33;19.15;;;7.53;;
44102;SDS011;29769;42.178;24.742;2023-02-10T16:03:17;14.23;;;6.97;;
44102;SDS011;29769;42.178;24.742;2023-02-10T16:06:02;13.68;;;7.05;;
44102;SDS011;29769;42.178;24.742;2023-02-10T16:08:47;18.75;;;7.20;;
44102;SDS011;29769;42.178;24.742;2023-02-10T16:11:32;17.17;;;9.18;;
44102;SDS011;29769;42.178;24.742;2023-02-10T16:14:17;16.00;;;8.13;;
44102;SDS011;29769;42.178;24.742;2023-02-10T16:17:02;19.08;;;8.55;;
44102;SDS011;29769;42.178;24.742;2023-02-10T16:19:49;20.75;;;9.10;;
44102;SDS011;29769;42.178;24.742;2023-02-10T16:22:34;26.50;;;9.45;;
44102;SDS011;29769;42.178;24.742;2023-02-10T16:25:20;21.58;;;8.73;;
44102;SDS011;29769;42.178;24.742;2023-02-10T16:28:07;26.00;;;11.25;;
44102;SDS011;29769;42.178;24.742;2023-02-10T16:30:54;34.15;;;11.27;;
44102;SDS011;29769;42.178;24.742;2023-02-10T16:33:38;15.98;;;8.13;;
44102;SDS011;29769;42.178;24.742;2023-02-10T16:36:25;24.27;;;9.10;;
44102;SDS011;29769;42.178;24.742;2023-02-10T16:42:00;21.55;;;8.25;;
44102;SDS011;29769;42.178;24.742;2023-02-10T16:44:45;21.77;;;9.35;;
44102;SDS011;29769;42.178;24.742;2023-02-10T16:47:30;19.40;;;8.98;;
44102;SDS011;29769;42.178;24.742;2023-02-10T16:50:32;15.82;;;8.18;;
44102;SDS011;29769;42.178;24.742;2023-02-10T16:53:17;21.73;;;7.90;;
44102;SDS011;29769;42.178;24.742;2023-02-10T16:56:02;22.88;;;9.30;;
44102;SDS011;29769;42.178;24.742;2023-02-10T16:58:48;19.40;;;8.80;;
44102;SDS011;29769;42.178;24.742;2023-02-10T17:01:33;17.70;;;7.70;;
44102;SDS011;29769;42.178;24.742;2023-02-10T17:04:18;22.02;;;9.18;;
44102;SDS011;29769;42.178;24.742;2023-02-10T17:07:03;26.42;;;9.85;;
44102;SDS011;29769;42.178;24.742;2023-02-10T17:09:47;17.00;;;9.13;;
44102;SDS011;29769;42.178;24.742;2023-02-10T17:12:32;41.30;;;16.05;;
44102;SDS011;29769;42.178;24.742;2023-02-10T17:15:18;47.13;;;21.10;;
44102;SDS011;29769;42.178;24.742;2023-02-10T17:18:03;26.23;;;12.13;;
44102;SDS011;29769;42.178;24.742;2023-02-10T17:20:48;34.50;;;12.70;;
44102;SDS011;29769;42.178;24.742;2023-02-10T17:23:33;35.67;;;15.93;;
44102;SDS011;29769;42.178;24.742;2023-02-10T17:26:18;37.53;;;12.93;;
44102;SDS011;29769;42.178;24.742;2023-02-10T17:29:02;39.50;;;15.50;;
44102;SDS011;29769;42.178;24.742;2023-02-10T17:31:47;29.67;;;14.60;;
44102;SDS011;29769;42.178;24.742;2023-02-10T17:34:33;43.17;;;17.08;;
44102;SDS011;29769;42.178;24.742;2023-02-10T17:37:19;57.45;;;23.00;;
44102;SDS011;29769;42.178;24.742;2023-02-10T17:40:04;44.28;;;18.27;;
44102;SDS011;29769;42.178;24.742;2023-02-10T17:42:59;50.47;;;18.33;;
44102;SDS011;29769;42.178;24.742;2023-02-10T17:45:43;58.08;;;18.65;;
44102;SDS011;29769;42.178;24.742;2023-02-10T17:48:28;60.67;;;16.05;;
44102;SDS011;29769;42.178;24.742;2023-02-10T17:51:17;51.78;;;15.32;;
44102;SDS011;29769;42.178;24.742;2023-02-10T17:54:04;42.50;;;13.15;;
44102;SDS011;29769;42.178;24.742;2023-02-10T17:56:50;35.95;;;11.57;;
44102;SDS011;29769;42.178;24.742;2023-02-10T17:59:34;49.85;;;14.07;;
44102;SDS011;29769;42.178;24.742;2023-02-10T18:02:19;38.97;;;10.55;;
44102;SDS011;29769;42.178;24.742;2023-02-10T18:05:04;29.40;;;10.23;;
44102;SDS011;29769;42.178;24.742;2023-02-10T18:07:49;45.15;;;11.15;;
44102;SDS011;29769;42.178;24.742;2023-02-10T18:10:34;45.75;;;12.27;;
44102;SDS011;29769;42.178;24.742;2023-02-10T18:13:19;45.95;;;12.50;;
44102;SDS011;29769;42.178;24.742;2023-02-10T18:16:04;41.78;;;12.90;;
44102;SDS011;29769;42.178;24.742;2023-02-10T18:18:49;37.47;;;12.90;;
44102;SDS011;29769;42.178;24.742;2023-02-10T18:21:34;37.83;;;11.93;;
44102;SDS011;29769;42.178;24.742;2023-02-10T18:24:19;42.78;;;12.80;;
44102;SDS011;29769;42.178;24.742;2023-02-10T18:27:03;35.17;;;12.73;;
44102;SDS011;29769;42.178;24.742;2023-02-10T18:29:49;31.13;;;13.25;;